Time;durP1;ratioP1;P1;durP2;ratioP2;P2;SDS_P1;SDS_P2;PMS_P1;PMS_P2;Temp;Humidity;BMP_temperature;BMP_pressure;BME280_temperature;BME280_humidity;BME280_pressure;Samples;Min_cycle;Max_cycle;Signal;HPM_P1;HPM_P2
2022/07/30 00:00:46;;;;;;;4.55;3.47;;;;;;;21.86;50.73;94866.25;5070096;28;20056;-74
2022/07/30 00:03:12;;;;;;;4.93;3.50;;;;;;;21.77;51.93;94864.78;5071513;28;20029;-74
2022/07/30 00:05:37;;;;;;;3.90;2.97;;;;;;;21.73;49.56;94861.75;5070382;28;20040;-74
2022/07/30 00:08:03;;;;;;;3.65;3.05;;;;;;;21.62;52.46;94849.88;5070213;28;20040;-74
2022/07/30 00:10:28;;;;;;;5.57;3.38;;;;;;;21.55;52.69;94858.75;5070147;28;20032;-74
2022/07/30 00:12:54;;;;;;;5.70;3.40;;;;;;;21.45;52.03;94861.72;5053414;28;20035;-74
2022/07/30 00:15:19;;;;;;;4.32;3.53;;;;;;;21.32;53.63;94859.00;5069933;28;20482;-74
2022/07/30 00:17:45;;;;;;;4.57;3.42;;;;;;;21.21;52.96;94852.41;5070000;28;20028;-74
2022/07/30 00:20:10;;;;;;;5.38;3.38;;;;;;;21.21;51.32;94862.97;5070033;28;20082;-74
2022/07/30 00:22:36;;;;;;;5.28;3.30;;;;;;;21.28;50.71;94852.44;5053274;28;20028;-74
2022/07/30 00:25:01;;;;;;;4.05;3.65;;;;;;;21.29;49.76;94849.63;5053265;28;20051;-74
2022/07/30 00:27:27;;;;;;;4.63;3.33;;;;;;;21.19;51.41;94849.94;5070282;28;20036;-75
2022/07/30 00:29:52;;;;;;;6.53;3.42;;;;;;;21.22;49.09;94848.75;5036443;28;20037;-74
2022/07/30 00:32:18;;;;;;;4.45;3.63;;;;;;;21.27;51.73;94850.81;5069911;28;20497;-74
2022/07/30 00:34:43;;;;;;;4.68;3.83;;;;;;;21.15;50.72;94848.69;5069862;28;20482;-74
2022/07/30 00:37:09;;;;;;;3.78;3.38;;;;;;;21.15;51.65;94853.16;5071034;28;20052;-74
2022/07/30 00:39:34;;;;;;;5.10;3.45;;;;;;;21.06;52.51;94851.66;5069735;28;20035;-74
2022/07/30 00:42:01;;;;;;;4.30;3.38;;;;;;;21.11;52.58;94852.72;5069670;28;20078;-74
2022/07/30 00:44:27;;;;;;;5.35;3.45;;;;;;;20.95;52.92;94843.25;5052863;28;20501;-75
2022/07/30 00:46:53;;;;;;;3.90;3.38;;;;;;;20.93;53.85;94853.19;5069718;28;20029;-74
2022/07/30 00:49:19;;;;;;;6.18;3.75;;;;;;;20.88;51.18;94831.00;5069646;28;20032;-74
2022/07/30 00:51:44;;;;;;;4.00;3.58;;;;;;;21.03;51.82;94849.41;5069694;28;20029;-74
2022/07/30 00:54:10;;;;;;;4.65;3.70;;;;;;;21.06;51.94;94841.09;5069419;28;20509;-74
2022/07/30 00:56:35;;;;;;;5.72;3.92;;;;;;;20.94;51.70;94840.81;5070879;28;20477;-74
2022/07/30 00:59:01;;;;;;;4.97;3.72;;;;;;;20.92;53.65;94841.00;5069780;28;20032;-74
2022/07/30 01:01:26;;;;;;;4.40;3.83;;;;;;;20.81;53.36;94825.69;5069234;28;20057;-74
2022/07/30 01:03:52;;;;;;;6.13;3.83;;;;;;;20.90;53.43;94837.72;5069292;28;20037;-74
2022/07/30 01:06:17;;;;;;;4.07;3.63;;;;;;;20.79;52.28;94834.78;5070639;28;20033;-74
2022/07/30 01:08:43;;;;;;;4.63;3.83;;;;;;;20.76;51.52;94817.50;5069344;28;20029;-75
2022/07/30 01:11:09;;;;;;;4.13;3.70;;;;;;;20.72;52.05;94827.59;5069350;28;20048;-74
2022/07/30 01:13:34;;;;;;;4.50;3.70;;;;;;;20.79;53.82;94826.88;5069442;28;20024;-74
2022/07/30 01:16:00;;;;;;;4.38;3.80;;;;;;;20.72;51.82;94818.88;5069479;28;20028;-74
2022/07/30 01:19:47;;;;;;;4.40;3.88;;;;;;;20.72;53.46;94826.78;5069464;28;20033;-74
2022/07/30 01:21:11;;;;;;;5.53;3.88;;;;;;;20.70;52.45;94818.28;5069602;28;20123;-74
2022/07/30 01:23:42;;;;;;;4.20;3.80;;;;;;;20.72;52.73;94827.59;5069308;28;20095;-74
2022/07/30 01:26:11;;;;;;;7.50;3.75;;;;;;;20.68;53.54;94821.09;5069283;28;20047;-74
2022/07/30 01:28:50;;;;;;;6.00;4.43;;;;;;;20.70;52.20;94839.38;5069293;28;20067;-75
2022/07/30 01:31:15;;;;;;;6.40;3.97;;;;;;;20.75;51.78;94826.41;5070443;28;20036;-74
2022/07/30 01:33:44;;;;;;;4.20;3.80;;;;;;;20.63;51.29;94814.75;5070426;28;20032;-74
2022/07/30 01:36:13;;;;;;;7.20;3.88;;;;;;;20.80;52.04;94821.38;5035757;28;20123;-74
2022/07/30 01:38:39;;;;;;;5.15;3.67;;;;;;;20.75;53.54;94823.78;5052530;28;20063;-75
2022/07/30 01:41:04;;;;;;;7.28;3.90;;;;;;;20.77;54.01;94823.59;5052405;28;20410;-75
2022/07/30 01:43:29;;;;;;;4.85;3.65;;;;;;;20.68;54.89;94826.38;5069156;28;20032;-74
2022/07/30 01:45:55;;;;;;;4.47;3.97;;;;;;;20.64;54.79;94830.38;5070678;28;20082;-74
2022/07/30 01:48:22;;;;;;;6.55;3.90;;;;;;;20.61;55.74;94832.56;5069131;28;20032;-74
2022/07/30 01:50:49;;;;;;;4.75;3.88;;;;;;;20.51;56.52;94833.69;5069229;28;20502;-74
2022/07/30 01:53:16;;;;;;;5.80;3.92;;;;;;;20.40;56.77;94823.63;5069025;28;20108;-74
2022/07/30 01:55:42;;;;;;;5.35;4.07;;;;;;;20.32;57.17;94831.66;5069127;28;20028;-74
2022/07/30 01:58:08;;;;;;;4.20;3.67;;;;;;;20.12;55.50;94825.34;5052314;28;20296;-74
2022/07/30 02:00:36;;;;;;;6.18;4.00;;;;;;;20.25;55.74;94831.59;5068794;28;20056;-74
2022/07/30 02:03:03;;;;;;;5.28;3.97;;;;;;;20.21;55.40;94830.31;5052091;28;20025;-74
2022/07/30 02:05:29;;;;;;;4.68;3.90;;;;;;;20.09;54.65;94830.00;5069046;28;20056;-74
2022/07/30 02:08:23;;;;;;;5.28;3.80;;;;;;;20.08;53.89;94814.34;5069167;28;20037;-74
2022/07/30 02:10:56;;;;;;;5.63;4.18;;;;;;;20.15;54.44;94820.50;5066405;28;20049;-74
2022/07/30 02:13:24;;;;;;;4.43;3.92;;;;;;;20.31;53.87;94820.28;5068926;28;20041;-74
2022/07/30 02:15:50;;;;;;;4.85;3.58;;;;;;;20.44;56.76;94830.16;5072163;28;20139;-74
2022/07/30 02:18:55;;;;;;;4.65;4.00;;;;;;;20.37;57.03;94824.00;5072257;28;20104;-74
2022/07/30 02:21:22;;;;;;;4.95;3.80;;;;;;;20.28;55.16;94822.47;5064773;28;20040;-74
2022/07/30 02:23:47;;;;;;;4.50;3.83;;;;;;;20.31;54.91;94819.47;5072249;28;20541;-74
2022/07/30 02:26:17;;;;;;;7.47;3.97;;;;;;;20.35;54.24;94810.19;5055446;28;20035;-74
2022/07/30 02:28:43;;;;;;;5.43;3.95;;;;;;;20.32;53.41;94810.56;5072124;28;20028;-74
2022/07/30 02:31:09;;;;;;;4.82;3.88;;;;;;;20.38;53.39;94817.72;5072037;28;20032;-74
2022/07/30 02:33:37;;;;;;;4.97;3.88;;;;;;;20.40;55.26;94810.44;5055390;28;20560;-75
2022/07/30 02:36:03;;;;;;;6.07;3.90;;;;;;;20.38;53.91;94815.06;5055391;28;20040;-74
2022/07/30 02:38:29;;;;;;;4.82;3.83;;;;;;;20.25;53.64;94799.09;5055583;28;20127;-74
2022/07/30 02:40:54;;;;;;;4.32;3.70;;;;;;;20.38;53.21;94799.25;5071976;28;20032;-74
2022/07/30 02:43:23;;;;;;;5.90;4.03;;;;;;;20.33;53.55;94804.25;5055174;28;20056;-74
2022/07/30 02:45:49;;;;;;;5.03;3.90;;;;;;;20.39;53.44;94810.59;5071996;28;20448;-74
2022/07/30 02:48:14;;;;;;;4.28;3.88;;;;;;;20.31;53.68;94801.81;5071795;28;20107;-74
2022/07/30 02:50:40;;;;;;;5.03;3.92;;;;;;;20.30;53.54;94804.63;5055219;28;20029;-74
2022/07/30 02:53:08;;;;;;;4.68;3.70;;;;;;;20.34;53.20;94803.28;5071695;28;20025;-74
2022/07/30 02:55:34;;;;;;;4.70;4.20;;;;;;;20.23;53.64;94811.69;5071687;28;20482;-74
2022/07/30 02:58:00;;;;;;;5.50;4.05;;;;;;;20.27;53.63;94805.81;5071596;28;20033;-74
2022/07/30 03:00:25;;;;;;;5.07;4.18;;;;;;;20.17;53.68;94807.97;5071313;28;20413;-74
2022/07/30 03:02:52;;;;;;;4.60;3.80;;;;;;;20.20;53.68;94801.50;5054774;28;20417;-74
2022/07/30 03:05:17;;;;;;;5.72;3.80;;;;;;;20.22;53.64;94812.66;5054919;28;20085;-74
2022/07/30 03:07:43;;;;;;;4.63;4.00;;;;;;;20.09;53.65;94784.34;5071534;28;20491;-74
2022/07/30 03:10:08;;;;;;;6.05;3.83;;;;;;;20.29;53.31;94798.56;5054673;28;20060;-74
2022/07/30 03:12:35;;;;;;;4.43;4.03;;;;;;;20.29;53.79;94793.28;5054523;28;20032;-74
2022/07/30 03:15:00;;;;;;;5.57;3.80;;;;;;;20.33;53.06;94793.72;5071130;28;20540;-74
2022/07/30 03:17:27;;;;;;;6.90;4.07;;;;;;;20.28;53.29;94796.94;5072518;28;20028;-74
2022/07/30 03:19:54;;;;;;;5.25;3.67;;;;;;;20.25;53.64;94786.75;5054441;28;20060;-74
2022/07/30 03:22:19;;;;;;;7.55;4.13;;;;;;;20.18;53.90;94777.13;5054399;28;20135;-74
2022/07/30 03:24:44;;;;;;;5.03;4.05;;;;;;;20.24;54.25;94787.75;5054215;28;20024;-74
2022/07/30 03:27:10;;;;;;;7.32;4.10;;;;;;;20.30;53.45;94794.91;5071036;28;20035;-74
2022/07/30 03:29:36;;;;;;;6.13;3.88;;;;;;;20.27;53.50;94790.00;5072293;28;20040;-74
2022/07/30 03:32:03;;;;;;;5.25;4.10;;;;;;;20.24;53.61;94785.09;5070932;28;20024;-75
2022/07/30 03:34:29;;;;;;;4.32;3.92;;;;;;;20.24;53.55;94797.47;5070902;28;20104;-74
2022/07/30 03:36:55;;;;;;;4.72;4.05;;;;;;;20.18;53.79;94791.13;5070809;28;20025;-74
2022/07/30 03:39:20;;;;;;;4.30;3.75;;;;;;;20.27;53.65;94805.81;5070729;28;20094;-74
2022/07/30 03:41:46;;;;;;;5.05;3.75;;;;;;;20.25;53.89;94807.84;5070672;28;20036;-74
2022/07/30 03:44:12;;;;;;;4.35;3.72;;;;;;;20.18;53.90;94803.50;5054045;28;20039;-74
2022/07/30 03:46:37;;;;;;;4.30;3.67;;;;;;;20.19;54.25;94810.41;5070683;28;20029;-74
2022/07/30 03:49:04;;;;;;;5.82;4.05;;;;;;;20.23;53.76;94814.31;5070451;28;20257;-74
2022/07/30 03:51:31;;;;;;;5.95;4.35;;;;;;;20.21;54.15;94813.69;5070572;28;20036;-74
2022/07/30 03:53:56;;;;;;;4.40;3.85;;;;;;;20.17;54.32;94807.13;5070518;28;20108;-74
2022/07/30 03:56:22;;;;;;;4.72;4.20;;;;;;;20.23;54.16;94803.78;5053752;28;20028;-74
2022/07/30 03:58:47;;;;;;;5.47;3.72;;;;;;;20.26;53.85;94811.31;5070382;28;20031;-74
2022/07/30 04:01:13;;;;;;;7.47;3.88;;;;;;;20.27;53.85;94805.03;5070200;28;20053;-74
2022/07/30 04:03:38;;;;;;;5.15;3.97;;;;;;;20.11;54.19;94803.41;5071574;28;20029;-74
2022/07/30 04:06:04;;;;;;;5.70;4.20;;;;;;;20.14;54.30;94812.78;5070164;28;20028;-74
2022/07/30 04:08:29;;;;;;;6.25;4.15;;;;;;;20.16;54.10;94808.16;5070292;28;20403;-74
2022/07/30 04:10:55;;;;;;;7.13;4.40;;;;;;;20.16;54.29;94816.06;5070341;28;20032;-74
2022/07/30 04:13:20;;;;;;;4.93;4.00;;;;;;;20.07;54.56;94816.16;5070154;28;20028;-74
2022/07/30 04:16:04;;;;;;;5.78;4.00;;;;;;;20.18;54.41;94808.78;5053512;28;20036;-74
2022/07/30 04:18:31;;;;;;;5.85;4.05;;;;;;;20.58;53.24;94817.13;5070415;28;20137;-74
2022/07/30 04:20:56;;;;;;;5.88;4.18;;;;;;;20.97;52.12;94806.91;5069808;28;20072;-74
2022/07/30 04:23:22;;;;;;;4.28;3.80;;;;;;;21.49;51.22;94812.78;5070096;28;20025;-74
2022/07/30 04:25:47;;;;;;;7.03;4.03;;;;;;;21.94;50.48;94805.28;5053131;28;20028;-74
2022/07/30 04:28:13;;;;;;;4.93;4.00;;;;;;;22.39;49.31;94807.50;5069932;28;20032;-74
2022/07/30 04:30:39;;;;;;;4.57;3.78;;;;;;;22.69;48.22;94808.78;5070017;28;20032;-74
2022/07/30 04:33:04;;;;;;;4.32;3.78;;;;;;;23.25;46.74;94806.78;5053196;28;20078;-75
2022/07/30 04:35:31;;;;;;;5.18;3.80;;;;;;;23.61;45.89;94812.41;5053311;28;20028;-74
2022/07/30 04:37:56;;;;;;;4.80;3.63;;;;;;;24.09;44.64;94808.59;5052610;28;20036;-74
2022/07/30 04:40:22;;;;;;;6.70;4.00;;;;;;;24.25;43.97;94807.31;5069851;28;20051;-75
2022/07/30 04:42:47;;;;;;;4.82;3.60;;;;;;;24.50;43.36;94810.06;5053024;28;20033;-74
2022/07/30 04:45:13;;;;;;;4.97;4.00;;;;;;;24.89;42.58;94814.31;5069774;28;20040;-75
2022/07/30 04:47:38;;;;;;;4.25;3.85;;;;;;;25.02;42.19;94800.13;5070076;28;20037;-75
2022/07/30 04:50:05;;;;;;;4.60;3.60;;;;;;;25.21;41.54;94810.81;5069672;28;20057;-75
2022/07/30 04:52:31;;;;;;;5.25;3.70;;;;;;;25.52;41.51;94809.91;5069651;28;20116;-75
2022/07/30 04:55:02;;;;;;;5.47;3.83;;;;;;;25.72;41.41;94807.06;5069552;28;20060;-75
2022/07/30 04:57:28;;;;;;;4.38;3.63;;;;;;;26.02;41.14;94810.63;5053041;28;20028;-75
2022/07/30 04:59:53;;;;;;;4.85;3.47;;;;;;;26.16;40.50;94802.47;5052574;28;20251;-75
2022/07/30 05:02:19;;;;;;;5.15;3.47;;;;;;;26.28;40.43;94811.34;5070673;28;20028;-75
2022/07/30 05:04:45;;;;;;;4.53;3.70;;;;;;;26.21;41.45;94811.41;5052842;28;20074;-75
2022/07/30 05:07:10;;;;;;;7.03;4.15;;;;;;;26.00;40.67;94809.22;5070727;28;20031;-75
2022/07/30 05:09:36;;;;;;;5.18;3.67;;;;;;;25.98;41.44;94806.78;5052704;28;20024;-75
2022/07/30 05:12:01;;;;;;;4.20;3.80;;;;;;;25.88;41.51;94811.81;5069510;28;20037;-76
2022/07/30 05:14:27;;;;;;;5.43;4.05;;;;;;;25.85;41.38;94801.59;5070490;28;20028;-75
2022/07/30 05:16:53;;;;;;;4.72;3.75;;;;;;;25.77;41.36;94794.72;5069331;28;20033;-75
2022/07/30 05:19:19;;;;;;;5.32;3.83;;;;;;;25.90;41.64;94800.94;5069344;28;20061;-75
2022/07/30 05:21:44;;;;;;;5.20;3.60;;;;;;;25.72;42.00;94802.56;5069311;28;20037;-75
2022/07/30 05:24:10;;;;;;;4.65;3.72;;;;;;;25.76;41.80;94803.72;5069193;28;20029;-74
2022/07/30 05:26:35;;;;;;;4.25;3.85;;;;;;;25.68;41.96;94800.53;5070550;28;20036;-74
2022/07/30 05:29:01;;;;;;;4.40;4.00;;;;;;;25.59;42.51;94803.50;5052658;28;20105;-74
2022/07/30 05:31:26;;;;;;;5.90;4.40;;;;;;;25.44;42.92;94800.38;5052452;28;20563;-74
2022/07/30 05:33:52;;;;;;;4.95;3.90;;;;;;;25.49;42.89;94803.22;5052398;28;20520;-74
2022/07/30 05:36:20;;;;;;;4.57;3.80;;;;;;;25.35;43.58;94799.88;5069194;28;20029;-74
2022/07/30 05:38:46;;;;;;;5.25;4.70;;;;;;;25.48;44.00;94790.13;5069157;28;20036;-75
2022/07/30 05:41:11;;;;;;;9.13;5.18;;;;;;;25.61;43.46;94787.31;5052400;28;20048;-75
2022/07/30 05:43:37;;;;;;;7.18;5.20;;;;;;;25.57;43.74;94799.44;5052440;28;20418;-74
2022/07/30 05:46:02;;;;;;;5.63;4.30;;;;;;;25.65;43.53;94793.81;5069320;28;20039;-75
2022/07/30 05:48:30;;;;;;;7.40;4.50;;;;;;;25.63;43.25;94799.38;5069139;28;20032;-74
2022/07/30 05:50:55;;;;;;;6.30;4.28;;;;;;;25.64;43.54;94802.84;5074200;28;20098;-75
2022/07/30 05:53:21;;;;;;;5.82;4.20;;;;;;;25.78;43.20;94812.31;5072839;28;20399;-75
2022/07/30 05:55:46;;;;;;;7.65;4.13;;;;;;;25.65;42.06;94796.47;5074324;28;20054;-75
2022/07/30 05:58:12;;;;;;;5.00;4.50;;;;;;;25.66;42.29;94792.81;5072725;28;20426;-75
2022/07/30 06:00:37;;;;;;;5.57;4.40;;;;;;;25.89;42.37;94800.16;5072391;28;20036;-75
2022/07/30 06:03:03;;;;;;;8.65;4.32;;;;;;;25.97;42.55;94810.50;5072674;28;20078;-74
2022/07/30 06:05:29;;;;;;;8.82;4.63;;;;;;;26.23;42.85;94809.34;5072608;28;20032;-75
2022/07/30 06:07:55;;;;;;;6.13;4.45;;;;;;;26.40;42.04;94808.72;5072869;28;20029;-75
2022/07/30 06:10:20;;;;;;;6.57;3.88;;;;;;;26.52;41.84;94806.94;5072629;28;20398;-75
2022/07/30 06:12:45;;;;;;;8.05;4.38;;;;;;;26.46;42.30;94808.63;5072783;28;20460;-75
2022/07/30 06:15:11;;;;;;;4.65;4.20;;;;;;;26.56;41.50;94813.44;5072478;28;20028;-75
2022/07/30 06:17:43;;;;;;;11.40;4.90;;;;;;;26.38;41.76;94797.47;5072474;28;20043;-74
2022/07/30 06:20:14;;;;;;;6.07;4.65;;;;;;;26.39;43.19;94809.78;5072359;28;20556;-75
2022/07/30 06:22:40;;;;;;;6.80;4.25;;;;;;;26.55;41.51;94806.50;5072303;28;20025;-74
2022/07/30 06:25:06;;;;;;;5.45;4.18;;;;;;;26.53;42.12;94800.59;5072331;28;20051;-74
2022/07/30 06:27:32;;;;;;;7.53;4.25;;;;;;;26.47;41.48;94804.94;5055748;28;20386;-75
2022/07/30 06:30:04;;;;;;;6.13;4.13;;;;;;;26.48;42.09;94800.41;5055533;28;20036;-74
2022/07/30 06:32:29;;;;;;;4.32;3.90;;;;;;;26.55;41.06;94789.69;5072110;28;20098;-75
2022/07/30 06:34:55;;;;;;;6.05;4.38;;;;;;;26.82;41.81;94800.78;5073474;28;20028;-74
2022/07/30 06:37:20;;;;;;;7.57;4.40;;;;;;;26.83;41.06;94800.56;5073275;28;20078;-75
2022/07/30 06:39:46;;;;;;;9.80;4.45;;;;;;;26.92;41.45;94796.53;5072048;28;20071;-75
2022/07/30 06:42:11;;;;;;;8.57;4.78;;;;;;;26.99;41.60;94799.06;5055137;28;20036;-74
2022/07/30 06:44:37;;;;;;;7.90;4.80;;;;;;;27.03;41.21;94796.78;5073180;28;20039;-75
2022/07/30 06:47:02;;;;;;;6.82;4.75;;;;;;;27.05;40.88;94800.00;5073079;28;20025;-75
2022/07/30 06:49:30;;;;;;;6.35;4.75;;;;;;;27.12;41.36;94803.38;5071803;28;20032;-74
2022/07/30 06:51:55;;;;;;;9.77;4.45;;;;;;;27.25;40.41;94795.22;5055023;28;20028;-75
2022/07/30 06:54:21;;;;;;;7.68;4.68;;;;;;;27.40;40.55;94792.06;5071765;28;20579;-75
2022/07/30 06:56:47;;;;;;;5.80;4.65;;;;;;;27.59;39.79;94779.44;5071734;28;20041;-75
2022/07/30 06:59:12;;;;;;;7.15;4.68;;;;;;;27.91;39.31;94787.06;5071343;28;20029;-75
2022/07/30 07:01:37;;;;;;;5.53;4.60;;;;;;;27.92;38.22;94792.16;5071108;28;20028;-75
2022/07/30 07:04:03;;;;;;;5.28;4.07;;;;;;;27.83;39.56;94788.22;5072675;28;20033;-75
2022/07/30 07:06:29;;;;;;;4.97;4.45;;;;;;;28.08;39.08;94785.25;5071485;28;20036;-75
2022/07/30 07:08:54;;;;;;;6.38;4.28;;;;;;;28.16;37.67;94773.41;5071674;28;20421;-75
2022/07/30 07:11:19;;;;;;;8.38;4.55;;;;;;;27.91;38.15;94753.16;5071318;28;20044;-75
2022/07/30 07:13:45;;;;;;;5.88;4.07;;;;;;;28.30;38.80;94769.41;5054571;28;20032;-75
2022/07/30 07:16:10;;;;;;;9.93;4.60;;;;;;;28.45;37.47;94761.72;5054557;28;20089;-75
2022/07/30 07:18:36;;;;;;;4.90;3.95;;;;;;;28.67;37.34;94766.38;5071299;28;20074;-75
2022/07/30 07:21:01;;;;;;;4.60;4.15;;;;;;;28.80;37.21;94760.69;5071206;28;20037;-75
2022/07/30 07:23:27;;;;;;;5.80;4.50;;;;;;;28.91;36.88;94759.81;5072365;28;20020;-75
2022/07/30 07:25:52;;;;;;;6.78;4.47;;;;;;;29.08;36.76;94753.69;5054525;28;20478;-75
2022/07/30 07:28:18;;;;;;;5.78;4.18;;;;;;;29.19;36.05;94747.44;5071107;28;20021;-75
2022/07/30 07:30:43;;;;;;;5.70;4.10;;;;;;;29.26;36.10;94753.44;5071135;28;20040;-75
2022/07/30 07:33:09;;;;;;;6.10;3.90;;;;;;;29.34;35.35;94754.91;5070976;28;20028;-75
2022/07/30 07:35:34;;;;;;;5.70;3.92;;;;;;;29.44;35.57;94756.88;5070984;28;20409;-75
2022/07/30 07:38:01;;;;;;;5.60;4.45;;;;;;;29.45;35.24;94748.63;5070824;28;20082;-75
2022/07/30 07:40:26;;;;;;;5.07;4.35;;;;;;;29.58;35.14;94750.13;5070723;28;20525;-75
2022/07/30 07:42:52;;;;;;;6.00;4.45;;;;;;;29.71;35.69;94749.81;5070681;28;20040;-75
2022/07/30 07:45:17;;;;;;;6.88;4.25;;;;;;;29.64;34.52;94740.34;5054081;28;20025;-75
2022/07/30 07:47:47;;;;;;;7.13;4.05;;;;;;;29.71;34.66;94744.44;5070638;28;20556;-75
2022/07/30 07:50:16;;;;;;;6.63;4.30;;;;;;;29.80;34.38;94731.44;5070605;28;20036;-75
2022/07/30 07:52:41;;;;;;;6.80;4.27;;;;;;;29.98;34.32;94743.72;5070564;28;20036;-75
2022/07/30 07:55:07;;;;;;;5.55;4.22;;;;;;;30.10;34.07;94738.22;5053622;28;20331;-75
2022/07/30 07:57:40;;;;;;;7.47;4.15;;;;;;;30.13;33.87;94746.56;5053733;28;20028;-76
2022/07/30 08:00:07;;;;;;;5.55;4.22;;;;;;;30.25;33.95;94746.44;5070286;28;20088;-75
2022/07/30 08:02:33;;;;;;;4.85;4.07;;;;;;;30.32;33.70;94740.91;5070365;28;20032;-76
2022/07/30 08:04:58;;;;;;;5.75;4.38;;;;;;;30.42;33.34;94738.31;5070334;28;20163;-75
2022/07/30 08:07:24;;;;;;;5.03;4.30;;;;;;;30.45;32.44;94745.84;5071543;28;20040;-75
2022/07/30 08:09:49;;;;;;;6.85;4.40;;;;;;;30.44;32.12;94744.25;5071580;28;20482;-75
2022/07/30 08:12:15;;;;;;;6.72;4.60;;;;;;;30.47;32.16;94744.53;5069488;28;20484;-75
2022/07/30 08:14:40;;;;;;;5.25;4.70;;;;;;;30.46;32.71;94737.56;5070198;28;20060;-75
2022/07/30 08:17:06;;;;;;;8.18;4.07;;;;;;;30.44;31.86;94728.16;5070340;28;20467;-75
2022/07/30 08:19:31;;;;;;;6.20;4.35;;;;;;;30.55;32.32;94742.47;5070060;28;20410;-75
2022/07/30 08:21:58;;;;;;;4.55;3.90;;;;;;;30.46;32.17;94731.41;5071226;28;20043;-75
2022/07/30 08:24:24;;;;;;;4.65;4.07;;;;;;;30.54;32.68;94722.09;5069979;28;20490;-77
2022/07/30 08:26:49;;;;;;;5.85;4.10;;;;;;;30.60;33.51;94721.88;5071406;28;20029;-75
2022/07/30 08:29:15;;;;;;;4.93;4.38;;;;;;;30.65;33.04;94724.63;5069744;28;20087;-75
2022/07/30 08:31:40;;;;;;;5.07;4.35;;;;;;;30.78;31.89;94722.56;5070009;28;20033;-75
2022/07/30 08:34:06;;;;;;;5.72;4.60;;;;;;;31.02;31.14;94733.78;5069730;28;20037;-75
2022/07/30 08:36:31;;;;;;;4.82;4.32;;;;;;;31.09;31.52;94724.47;5071110;28;20028;-75
2022/07/30 08:38:57;;;;;;;7.00;4.25;;;;;;;31.13;31.44;94728.25;5071070;28;20017;-75
2022/07/30 08:41:22;;;;;;;6.00;4.65;;;;;;;31.15;31.06;94723.44;5069710;28;20043;-75
2022/07/30 08:43:49;;;;;;;7.00;4.07;;;;;;;31.22;31.22;94725.06;5052941;28;20517;-75
2022/07/30 08:46:14;;;;;;;5.18;4.50;;;;;;;31.25;31.27;94708.47;5069652;28;20517;-75
2022/07/30 08:48:41;;;;;;;5.63;4.18;;;;;;;31.34;31.10;94714.94;5069780;28;20025;-75
2022/07/30 08:51:06;;;;;;;5.35;4.13;;;;;;;31.44;31.26;94715.03;5069643;28;20512;-75
2022/07/30 08:53:33;;;;;;;5.57;4.60;;;;;;;31.54;30.00;94717.00;5070902;28;20028;-75
2022/07/30 08:55:58;;;;;;;8.25;4.50;;;;;;;31.58;30.45;94708.13;5069734;28;20116;-75
2022/07/30 08:58:29;;;;;;;5.80;4.78;;;;;;;31.68;29.61;94706.56;5052822;28;20463;-76
2022/07/30 09:00:55;;;;;;;5.00;4.50;;;;;;;31.76;29.45;94703.38;5052565;28;20045;-76
2022/07/30 09:03:21;;;;;;;5.50;4.90;;;;;;;31.73;29.66;94701.22;5052946;28;20038;-76
2022/07/30 09:05:46;;;;;;;7.65;5.20;;;;;;;31.76;29.41;94711.44;5036146;28;20029;-75
2022/07/30 09:08:11;;;;;;;4.97;4.47;;;;;;;31.76;28.79;94698.00;5069471;28;20017;-75
2022/07/30 09:10:37;;;;;;;7.18;4.63;;;;;;;31.80;30.21;94699.13;5069608;28;20392;-75
2022/07/30 09:13:02;;;;;;;5.22;4.57;;;;;;;31.83;29.09;94695.91;5070693;28;20060;-75
2022/07/30 09:15:28;;;;;;;5.05;4.55;;;;;;;31.80;29.08;94678.44;5069616;28;20033;-75
2022/07/30 09:17:54;;;;;;;6.35;4.40;;;;;;;31.78;28.81;94683.25;5069623;28;20054;-75
2022/07/30 09:20:21;;;;;;;5.18;4.75;;;;;;;31.82;29.31;94683.56;5052620;28;20109;-75
2022/07/30 09:22:49;;;;;;;6.38;4.28;;;;;;;31.76;28.55;94671.16;5052664;28;20060;-75
2022/07/30 09:25:14;;;;;;;4.82;4.32;;;;;;;31.77;29.19;94672.78;5073350;28;20043;-75
2022/07/30 09:27:47;;;;;;;6.78;5.15;;;;;;;31.88;29.33;94677.13;5073363;28;20025;-75
2022/07/30 09:30:13;;;;;;;4.82;4.32;;;;;;;31.79;27.85;94676.03;5073353;28;20043;-75
2022/07/30 09:32:49;;;;;;;10.13;4.85;;;;;;;31.72;29.13;94668.19;5074541;28;20024;-75
2022/07/30 09:35:15;;;;;;;4.97;4.47;;;;;;;31.82;29.54;94667.44;5073295;28;20111;-75
2022/07/30 09:37:40;;;;;;;6.30;4.82;;;;;;;31.81;29.68;94655.06;5073258;28;20443;-75
2022/07/30 09:40:16;;;;;;;5.75;4.43;;;;;;;31.80;29.95;94650.78;5056343;28;20031;-75
2022/07/30 09:42:42;;;;;;;5.22;4.32;;;;;;;31.85;30.02;94655.38;5073034;28;20418;-76
2022/07/30 09:45:08;;;;;;;5.10;4.60;;;;;;;31.83;30.19;94652.94;5072987;28;20032;-75
2022/07/30 09:47:36;;;;;;;5.53;4.32;;;;;;;31.96;31.00;94657.84;5074554;28;20024;-75
2022/07/30 09:50:06;;;;;;;5.20;4.70;;;;;;;31.98;30.12;94661.09;5072922;28;20040;-75
2022/07/30 09:52:31;;;;;;;4.75;4.30;;;;;;;31.95;30.40;94653.53;5072959;28;20095;-76
2022/07/30 09:54:57;;;;;;;4.85;4.35;;;;;;;31.96;29.51;94654.38;5072878;28;20088;-75
2022/07/30 09:57:22;;;;;;;5.28;4.45;;;;;;;32.02;29.77;94650.63;5056094;28;20025;-75
2022/07/30 09:59:48;;;;;;;5.43;4.32;;;;;;;32.03;30.14;94642.28;5055870;28;20053;-75
2022/07/30 10:02:13;;;;;;;6.90;4.78;;;;;;;32.18;29.38;94638.81;5072554;28;20082;-75
2022/07/30 10:04:39;;;;;;;8.15;4.85;;;;;;;32.21;29.36;94648.25;5072688;28;20041;-74
2022/07/30 10:07:04;;;;;;;5.60;4.60;;;;;;;32.06;28.22;94635.56;5072610;28;20486;-75
2022/07/30 10:09:34;;;;;;;5.78;4.53;;;;;;;32.03;29.08;94631.53;5055644;28;20430;-75
2022/07/30 10:12:03;;;;;;;8.50;4.72;;;;;;;31.92;28.59;94624.53;5072462;28;20029;-75
2022/07/30 10:14:32;;;;;;;4.88;4.30;;;;;;;32.08;29.66;94627.25;5072500;28;20047;-75
2022/07/30 10:16:57;;;;;;;4.80;4.40;;;;;;;32.11;28.92;94624.03;5072438;28;20037;-75
2022/07/30 10:19:23;;;;;;;4.80;4.15;;;;;;;32.18;29.16;94627.25;5072351;28;20036;-74
2022/07/30 10:21:49;;;;;;;5.05;4.55;;;;;;;32.26;28.87;94619.50;5072332;28;20043;-75
2022/07/30 10:24:18;;;;;;;6.30;4.65;;;;;;;32.01;28.70;94620.25;5073521;28;20035;-75
2022/07/30 10:26:45;;;;;;;6.60;4.85;;;;;;;32.17;29.47;94609.53;5072321;28;20038;-76
2022/07/30 10:29:10;;;;;;;6.88;5.88;;;;;;;32.34;29.16;94614.66;5073326;28;20502;-74
2022/07/30 10:31:36;;;;;;;4.70;4.20;;;;;;;32.36;28.55;94616.00;5072252;28;20040;-75
2022/07/30 10:34:01;;;;;;;5.10;4.57;;;;;;;32.41;28.56;94616.00;5055647;28;20035;-75
2022/07/30 10:36:27;;;;;;;6.45;4.55;;;;;;;32.05;27.79;94605.22;5071110;28;20486;-75
2022/07/30 10:38:53;;;;;;;5.40;4.60;;;;;;;32.22;28.68;94585.34;5072050;28;20024;-75
2022/07/30 10:41:46;;;;;;;7.28;5.55;;;;;;;32.46;29.17;94607.97;5071902;28;20103;-75
2022/07/30 10:44:33;;;;;;;5.72;4.68;;;;;;;32.08;29.33;94611.13;5073123;28;20029;-75
2022/07/30 10:47:03;;;;;;;5.15;4.60;;;;;;;31.83;29.68;94601.94;5071892;28;20411;-75
2022/07/30 10:49:29;;;;;;;5.50;5.00;;;;;;;31.87;29.74;94600.31;5071846;28;20473;-75
2022/07/30 10:51:54;;;;;;;5.65;4.88;;;;;;;31.89;28.52;94595.50;5071836;28;20028;-74
2022/07/30 10:54:41;;;;;;;5.03;4.63;;;;;;;31.94;28.91;94595.53;5071692;28;20452;-75
2022/07/30 10:57:13;;;;;;;6.85;5.07;;;;;;;31.93;30.12;94596.63;5072912;28;20060;-75
2022/07/30 10:59:51;;;;;;;6.25;4.93;;;;;;;32.01;29.38;94596.09;5071415;28;20052;-75
2022/07/30 11:02:17;;;;;;;5.35;4.85;;;;;;;31.76;29.94;94591.44;5071415;28;20029;-74
2022/07/30 11:04:43;;;;;;;7.00;5.63;;;;;;;31.77;29.97;94574.25;5071627;28;20067;-74
2022/07/30 11:07:20;;;;;;;8.60;5.40;;;;;;;31.83;28.94;94586.63;5071545;28;20033;-74
2022/07/30 11:09:47;;;;;;;5.65;5.10;;;;;;;31.94;29.98;94579.41;5072794;28;20043;-75
2022/07/30 11:12:12;;;;;;;6.07;5.47;;;;;;;31.90;29.81;94564.91;5054735;28;20024;-75
2022/07/30 11:14:47;;;;;;;5.53;5.03;;;;;;;32.09;29.48;94569.75;5071368;28;20060;-74
2022/07/30 11:17:13;;;;;;;6.47;5.28;;;;;;;32.00;29.72;94564.13;5072502;28;20554;-74
2022/07/30 11:20:00;;;;;;;6.18;5.57;;;;;;;31.94;30.28;94567.88;5071315;28;20037;-75
2022/07/30 11:22:39;;;;;;;5.82;5.28;;;;;;;32.04;31.00;94557.16;5072345;28;20028;-75
2022/07/30 11:25:08;;;;;;;7.03;6.10;;;;;;;31.87;30.59;94561.91;5071373;28;20040;-75
2022/07/30 11:27:45;;;;;;;6.35;5.75;;;;;;;31.80;29.59;94551.44;5072301;28;20074;-75
2022/07/30 11:30:20;;;;;;;7.20;5.70;;;;;;;31.97;30.28;94551.22;5054562;28;20042;-75
2022/07/30 11:32:48;;;;;;;7.80;5.65;;;;;;;32.14;29.24;94553.66;5072119;28;20042;-75